sensor_id;sensor_type;location;lat;lon;timestamp;P1;durP1;ratioP1;P2;durP2;ratioP2
1360;SDS011;674;45.552;-122.600;2022-10-14T00:01:21;25.60;;;22.30;;
1360;SDS011;674;45.552;-122.600;2022-10-14T00:03:51;25.67;;;23.07;;
1360;SDS011;674;45.552;-122.600;2022-10-14T00:06:22;23.73;;;21.43;;
1360;SDS011;674;45.552;-122.600;2022-10-14T00:08:52;24.10;;;21.60;;
1360;SDS011;674;45.552;-122.600;2022-10-14T00:11:22;23.00;;;20.70;;
1360;SDS011;674;45.552;-122.600;2022-10-14T00:13:53;24.73;;;21.33;;
1360;SDS011;674;45.552;-122.600;2022-10-14T00:16:28;25.33;;;22.03;;
1360;SDS011;674;45.552;-122.600;2022-10-14T00:18:59;24.43;;;21.80;;
1360;SDS011;674;45.552;-122.600;2022-10-14T00:21:29;26.60;;;23.30;;
1360;SDS011;674;45.552;-122.600;2022-10-14T00:23:58;24.63;;;22.00;;
1360;SDS011;674;45.552;-122.600;2022-10-14T00:26:28;27.03;;;23.63;;
1360;SDS011;674;45.552;-122.600;2022-10-14T00:28:59;24.60;;;22.00;;
1360;SDS011;674;45.552;-122.600;2022-10-14T00:31:29;26.47;;;23.77;;
1360;SDS011;674;45.552;-122.600;2022-10-14T00:33:57;32.17;;;28.90;;
1360;SDS011;674;45.552;-122.600;2022-10-14T00:36:26;25.40;;;22.63;;
1360;SDS011;674;45.552;-122.600;2022-10-14T00:38:54;24.70;;;22.03;;
1360;SDS011;674;45.552;-122.600;2022-10-14T00:41:25;26.37;;;23.60;;
1360;SDS011;674;45.552;-122.600;2022-10-14T00:43:57;36.70;;;32.13;;
1360;SDS011;674;45.552;-122.600;2022-10-14T00:46:32;25.27;;;22.53;;
1360;SDS011;674;45.552;-122.600;2022-10-14T00:49:37;24.83;;;21.90;;
1360;SDS011;674;45.552;-122.600;2022-10-14T00:52:04;38.57;;;24.60;;
1360;SDS011;674;45.552;-122.600;2022-10-14T00:57:55;40.93;;;23.17;;
1360;SDS011;674;45.552;-122.600;2022-10-14T01:00:24;32.27;;;23.47;;
1360;SDS011;674;45.552;-122.600;2022-10-14T01:02:52;32.40;;;24.33;;
1360;SDS011;674;45.552;-122.600;2022-10-14T01:05:26;34.37;;;25.17;;
1360;SDS011;674;45.552;-122.600;2022-10-14T01:08:08;33.87;;;23.80;;
1360;SDS011;674;45.552;-122.600;2022-10-14T01:10:56;52.20;;;24.33;;
1360;SDS011;674;45.552;-122.600;2022-10-14T01:13:40;27.57;;;23.73;;
1360;SDS011;674;45.552;-122.600;2022-10-14T01:22:20;26.27;;;22.37;;
1360;SDS011;674;45.552;-122.600;2022-10-14T01:27:38;27.13;;;22.80;;
1360;SDS011;674;45.552;-122.600;2022-10-14T01:30:18;29.30;;;23.37;;
1360;SDS011;674;45.552;-122.600;2022-10-14T01:38:15;26.63;;;22.20;;
1360;SDS011;674;45.552;-122.600;2022-10-14T01:43:44;28.37;;;23.23;;
1360;SDS011;674;45.552;-122.600;2022-10-14T01:46:15;30.60;;;22.63;;
1360;SDS011;674;45.552;-122.600;2022-10-14T01:48:47;23.87;;;21.30;;
1360;SDS011;674;45.552;-122.600;2022-10-14T01:51:26;26.57;;;21.57;;
1360;SDS011;674;45.552;-122.600;2022-10-14T01:54:09;23.13;;;20.63;;
1360;SDS011;674;45.552;-122.600;2022-10-14T01:56:43;27.10;;;21.17;;
1360;SDS011;674;45.552;-122.600;2022-10-14T01:59:14;25.93;;;22.30;;
1360;SDS011;674;45.552;-122.600;2022-10-14T02:01:44;24.47;;;21.83;;
1360;SDS011;674;45.552;-122.600;2022-10-14T02:04:15;24.47;;;21.73;;
1360;SDS011;674;45.552;-122.600;2022-10-14T02:06:49;26.17;;;21.10;;
1360;SDS011;674;45.552;-122.600;2022-10-14T02:12:30;34.63;;;23.63;;
1360;SDS011;674;45.552;-122.600;2022-10-14T02:15:53;26.77;;;21.93;;
1360;SDS011;674;45.552;-122.600;2022-10-14T02:18:37;26.50;;;23.30;;
1360;SDS011;674;45.552;-122.600;2022-10-14T02:21:11;23.50;;;21.00;;
1360;SDS011;674;45.552;-122.600;2022-10-14T02:24:21;25.00;;;21.57;;
1360;SDS011;674;45.552;-122.600;2022-10-14T02:26:55;26.50;;;21.07;;
1360;SDS011;674;45.552;-122.600;2022-10-14T02:29:28;27.03;;;22.00;;
1360;SDS011;674;45.552;-122.600;2022-10-14T02:31:58;27.40;;;20.80;;
1360;SDS011;674;45.552;-122.600;2022-10-14T02:34:28;30.07;;;21.73;;
1360;SDS011;674;45.552;-122.600;2022-10-14T02:36:57;28.40;;;22.50;;
1360;SDS011;674;45.552;-122.600;2022-10-14T02:39:28;25.70;;;22.93;;
1360;SDS011;674;45.552;-122.600;2022-10-14T02:41:59;27.20;;;20.60;;
1360;SDS011;674;45.552;-122.600;2022-10-14T02:44:29;25.27;;;20.77;;
1360;SDS011;674;45.552;-122.600;2022-10-14T02:46:57;25.83;;;20.03;;
1360;SDS011;674;45.552;-122.600;2022-10-14T02:49:26;25.70;;;20.97;;
1360;SDS011;674;45.552;-122.600;2022-10-14T02:51:55;23.63;;;19.60;;
1360;SDS011;674;45.552;-122.600;2022-10-14T02:54:23;21.30;;;19.10;;
1360;SDS011;674;45.552;-122.600;2022-10-14T02:56:51;26.87;;;19.97;;
1360;SDS011;674;45.552;-122.600;2022-10-14T02:59:20;28.20;;;18.00;;
1360;SDS011;674;45.552;-122.600;2022-10-14T03:01:48;31.47;;;19.60;;
1360;SDS011;674;45.552;-122.600;2022-10-14T03:04:17;28.50;;;18.37;;
1360;SDS011;674;45.552;-122.600;2022-10-14T03:06:45;24.70;;;19.50;;
1360;SDS011;674;45.552;-122.600;2022-10-14T03:09:13;26.53;;;19.40;;
1360;SDS011;674;45.552;-122.600;2022-10-14T03:11:42;26.90;;;19.03;;
1360;SDS011;674;45.552;-122.600;2022-10-14T03:14:10;24.57;;;19.00;;
1360;SDS011;674;45.552;-122.600;2022-10-14T03:16:39;21.70;;;18.60;;
1360;SDS011;674;45.552;-122.600;2022-10-14T03:19:07;20.90;;;16.87;;
1360;SDS011;674;45.552;-122.600;2022-10-14T03:21:35;23.60;;;18.27;;
1360;SDS011;674;45.552;-122.600;2022-10-14T03:24:04;23.60;;;17.53;;
1360;SDS011;674;45.552;-122.600;2022-10-14T03:26:33;26.93;;;19.03;;
1360;SDS011;674;45.552;-122.600;2022-10-14T03:29:02;22.40;;;17.70;;
1360;SDS011;674;45.552;-122.600;2022-10-14T03:31:30;20.87;;;18.67;;
1360;SDS011;674;45.552;-122.600;2022-10-14T03:33:58;23.07;;;18.97;;
1360;SDS011;674;45.552;-122.600;2022-10-14T03:36:27;20.57;;;18.30;;
1360;SDS011;674;45.552;-122.600;2022-10-14T03:38:55;21.77;;;16.30;;
1360;SDS011;674;45.552;-122.600;2022-10-14T03:41:25;24.27;;;17.77;;
1360;SDS011;674;45.552;-122.600;2022-10-14T03:43:54;19.20;;;16.40;;
1360;SDS011;674;45.552;-122.600;2022-10-14T03:46:22;24.50;;;16.80;;
1360;SDS011;674;45.552;-122.600;2022-10-14T03:48:51;21.20;;;17.40;;
1360;SDS011;674;45.552;-122.600;2022-10-14T03:51:20;24.10;;;17.77;;
1360;SDS011;674;45.552;-122.600;2022-10-14T03:53:50;22.43;;;17.13;;
1360;SDS011;674;45.552;-122.600;2022-10-14T03:56:18;29.40;;;17.17;;
1360;SDS011;674;45.552;-122.600;2022-10-14T03:58:48;18.87;;;15.93;;
1360;SDS011;674;45.552;-122.600;2022-10-14T04:01:17;20.27;;;16.73;;
1360;SDS011;674;45.552;-122.600;2022-10-14T04:03:46;21.40;;;16.93;;
1360;SDS011;674;45.552;-122.600;2022-10-14T04:06:14;19.50;;;15.87;;
1360;SDS011;674;45.552;-122.600;2022-10-14T04:08:43;25.63;;;17.37;;
1360;SDS011;674;45.552;-122.600;2022-10-14T04:11:12;28.00;;;18.90;;
1360;SDS011;674;45.552;-122.600;2022-10-14T04:13:42;21.17;;;15.90;;
1360;SDS011;674;45.552;-122.600;2022-10-14T04:16:11;23.17;;;14.80;;
1360;SDS011;674;45.552;-122.600;2022-10-14T04:18:40;19.70;;;14.83;;
1360;SDS011;674;45.552;-122.600;2022-10-14T04:21:10;20.53;;;14.70;;
1360;SDS011;674;45.552;-122.600;2022-10-14T04:23:39;26.10;;;14.50;;
1360;SDS011;674;45.552;-122.600;2022-10-14T04:26:08;20.43;;;14.63;;
1360;SDS011;674;45.552;-122.600;2022-10-14T04:28:37;20.73;;;15.40;;
1360;SDS011;674;45.552;-122.600;2022-10-14T04:31:07;24.10;;;15.27;;
1360;SDS011;674;45.552;-122.600;2022-10-14T04:33:36;22.57;;;15.33;;
1360;SDS011;674;45.552;-122.600;2022-10-14T04:36:05;21.37;;;14.60;;
1360;SDS011;674;45.552;-122.600;2022-10-14T04:38:34;26.53;;;15.30;;
1360;SDS011;674;45.552;-122.600;2022-10-14T04:41:03;22.07;;;16.07;;
1360;SDS011;674;45.552;-122.600;2022-10-14T04:43:32;23.33;;;16.07;;
1360;SDS011;674;45.552;-122.600;2022-10-14T04:46:00;22.17;;;16.87;;
1360;SDS011;674;45.552;-122.600;2022-10-14T04:48:29;22.30;;;14.93;;
1360;SDS011;674;45.552;-122.600;2022-10-14T04:50:57;20.17;;;16.20;;
1360;SDS011;674;45.552;-122.600;2022-10-14T04:53:25;19.10;;;14.83;;
1360;SDS011;674;45.552;-122.600;2022-10-14T04:55:54;20.10;;;16.10;;
1360;SDS011;674;45.552;-122.600;2022-10-14T04:58:22;17.60;;;15.30;;
1360;SDS011;674;45.552;-122.600;2022-10-14T05:00:52;17.23;;;14.80;;
1360;SDS011;674;45.552;-122.600;2022-10-14T05:03:21;21.80;;;15.70;;
1360;SDS011;674;45.552;-122.600;2022-10-14T05:05:50;20.93;;;16.87;;
1360;SDS011;674;45.552;-122.600;2022-10-14T05:08:18;19.57;;;15.63;;
1360;SDS011;674;45.552;-122.600;2022-10-14T05:10:47;21.40;;;16.77;;
1360;SDS011;674;45.552;-122.600;2022-10-14T05:13:16;19.10;;;15.50;;
1360;SDS011;674;45.552;-122.600;2022-10-14T05:15:45;20.47;;;16.17;;
1360;SDS011;674;45.552;-122.600;2022-10-14T05:18:14;25.23;;;16.63;;
1360;SDS011;674;45.552;-122.600;2022-10-14T05:20:43;23.57;;;15.93;;
1360;SDS011;674;45.552;-122.600;2022-10-14T05:23:11;22.60;;;17.00;;
1360;SDS011;674;45.552;-122.600;2022-10-14T05:25:40;20.90;;;18.20;;
1360;SDS011;674;45.552;-122.600;2022-10-14T05:28:09;19.73;;;17.40;;
1360;SDS011;674;45.552;-122.600;2022-10-14T05:30:37;19.70;;;17.60;;
1360;SDS011;674;45.552;-122.600;2022-10-14T05:33:06;19.90;;;17.10;;
1360;SDS011;674;45.552;-122.600;2022-10-14T05:35:34;23.67;;;18.33;;
1360;SDS011;674;45.552;-122.600;2022-10-14T05:38:23;25.07;;;18.47;;
1360;SDS011;674;45.552;-122.600;2022-10-14T05:40:52;25.37;;;19.40;;
1360;SDS011;674;45.552;-122.600;2022-10-14T05:43:21;22.03;;;17.10;;
1360;SDS011;674;45.552;-122.600;2022-10-14T05:45:58;22.70;;;19.10;;
1360;SDS011;674;45.552;-122.600;2022-10-14T05:48:27;24.40;;;19.03;;
1360;SDS011;674;45.552;-122.600;2022-10-14T05:50:55;24.40;;;19.77;;
1360;SDS011;674;45.552;-122.600;2022-10-14T05:53:27;22.73;;;18.67;;
1360;SDS011;674;45.552;-122.600;2022-10-14T05:56:03;23.40;;;17.63;;
1360;SDS011;674;45.552;-122.600;2022-10-14T05:58:33;25.80;;;20.57;;
1360;SDS011;674;45.552;-122.600;2022-10-14T06:01:02;25.63;;;20.83;;
1360;SDS011;674;45.552;-122.600;2022-10-14T06:03:32;24.43;;;20.30;;
1360;SDS011;674;45.552;-122.600;2022-10-14T06:06:01;25.10;;;20.03;;
1360;SDS011;674;45.552;-122.600;2022-10-14T06:08:29;23.87;;;19.67;;
1360;SDS011;674;45.552;-122.600;2022-10-14T06:11:01;22.60;;;19.70;;
1360;SDS011;674;45.552;-122.600;2022-10-14T06:13:31;26.00;;;20.40;;
1360;SDS011;674;45.552;-122.600;2022-10-14T06:16:06;32.27;;;23.20;;
1360;SDS011;674;45.552;-122.600;2022-10-14T06:18:36;24.83;;;20.20;;
1360;SDS011;674;45.552;-122.600;2022-10-14T06:21:04;28.03;;;21.50;;
1360;SDS011;674;45.552;-122.600;2022-10-14T06:23:33;26.13;;;22.03;;
1360;SDS011;674;45.552;-122.600;2022-10-14T06:26:03;30.27;;;21.50;;
1360;SDS011;674;45.552;-122.600;2022-10-14T06:28:32;26.67;;;22.00;;
1360;SDS011;674;45.552;-122.600;2022-10-14T06:31:01;24.30;;;20.63;;
1360;SDS011;674;45.552;-122.600;2022-10-14T06:33:30;28.87;;;21.70;;
1360;SDS011;674;45.552;-122.600;2022-10-14T06:36:03;29.53;;;22.07;;
1360;SDS011;674;45.552;-122.600;2022-10-14T06:38:33;28.37;;;22.70;;
1360;SDS011;674;45.552;-122.600;2022-10-14T06:41:01;27.30;;;23.03;;
1360;SDS011;674;45.552;-122.600;2022-10-14T06:43:30;29.63;;;21.90;;
1360;SDS011;674;45.552;-122.600;2022-10-14T06:45:58;26.00;;;20.87;;
1360;SDS011;674;45.552;-122.600;2022-10-14T06:48:27;28.07;;;22.30;;
1360;SDS011;674;45.552;-122.600;2022-10-14T06:50:59;31.17;;;22.97;;
1360;SDS011;674;45.552;-122.600;2022-10-14T06:53:28;27.57;;;22.33;;
1360;SDS011;674;45.552;-122.600;2022-10-14T06:55:58;26.53;;;21.57;;
1360;SDS011;674;45.552;-122.600;2022-10-14T06:58:31;28.60;;;22.03;;
1360;SDS011;674;45.552;-122.600;2022-10-14T07:01:00;27.40;;;22.10;;
1360;SDS011;674;45.552;-122.600;2022-10-14T07:03:30;33.60;;;22.60;;
1360;SDS011;674;45.552;-122.600;2022-10-14T07:06:03;27.37;;;22.17;;
1360;SDS011;674;45.552;-122.600;2022-10-14T07:08:32;32.57;;;22.33;;
1360;SDS011;674;45.552;-122.600;2022-10-14T07:11:02;27.70;;;22.60;;
1360;SDS011;674;45.552;-122.600;2022-10-14T07:13:31;30.37;;;23.13;;
1360;SDS011;674;45.552;-122.600;2022-10-14T07:16:04;28.10;;;21.87;;
1360;SDS011;674;45.552;-122.600;2022-10-14T07:18:32;29.00;;;24.10;;
1360;SDS011;674;45.552;-122.600;2022-10-14T07:21:02;29.97;;;22.77;;
1360;SDS011;674;45.552;-122.600;2022-10-14T07:23:31;25.20;;;20.97;;
1360;SDS011;674;45.552;-122.600;2022-10-14T07:25:59;27.50;;;22.50;;
1360;SDS011;674;45.552;-122.600;2022-10-14T07:28:28;29.23;;;23.20;;
1360;SDS011;674;45.552;-122.600;2022-10-14T07:31:01;28.40;;;23.23;;
1360;SDS011;674;45.552;-122.600;2022-10-14T07:33:31;25.83;;;21.40;;
1360;SDS011;674;45.552;-122.600;2022-10-14T07:36:04;31.13;;;24.30;;
1360;SDS011;674;45.552;-122.600;2022-10-14T07:38:36;29.47;;;23.10;;
1360;SDS011;674;45.552;-122.600;2022-10-14T07:41:06;28.03;;;23.63;;
1360;SDS011;674;45.552;-122.600;2022-10-14T07:43:47;26.43;;;21.80;;
1360;SDS011;674;45.552;-122.600;2022-10-14T07:46:18;26.07;;;22.43;;
1360;SDS011;674;45.552;-122.600;2022-10-14T07:49:03;27.73;;;21.27;;
1360;SDS011;674;45.552;-122.600;2022-10-14T07:51:34;28.33;;;24.40;;
1360;SDS011;674;45.552;-122.600;2022-10-14T07:54:04;25.07;;;21.43;;
1360;SDS011;674;45.552;-122.600;2022-10-14T07:56:36;26.13;;;21.37;;
1360;SDS011;674;45.552;-122.600;2022-10-14T07:59:06;27.17;;;21.90;;
1360;SDS011;674;45.552;-122.600;2022-10-14T08:01:34;29.97;;;23.77;;
1360;SDS011;674;45.552;-122.600;2022-10-14T08:04:04;26.13;;;23.33;;
1360;SDS011;674;45.552;-122.600;2022-10-14T08:06:32;28.20;;;23.50;;
1360;SDS011;674;45.552;-122.600;2022-10-14T08:09:03;28.27;;;22.10;;
1360;SDS011;674;45.552;-122.600;2022-10-14T08:11:32;26.40;;;23.60;;
1360;SDS011;674;45.552;-122.600;2022-10-14T08:14:00;27.70;;;23.00;;
1360;SDS011;674;45.552;-122.600;2022-10-14T08:16:30;32.40;;;23.30;;
1360;SDS011;674;45.552;-122.600;2022-10-14T08:19:00;26.77;;;21.57;;
1360;SDS011;674;45.552;-122.600;2022-10-14T08:21:39;28.63;;;23.87;;
1360;SDS011;674;45.552;-122.600;2022-10-14T08:24:09;28.93;;;23.00;;
1360;SDS011;674;45.552;-122.600;2022-10-14T08:26:38;32.73;;;24.50;;
1360;SDS011;674;45.552;-122.600;2022-10-14T08:29:15;26.40;;;22.00;;
1360;SDS011;674;45.552;-122.600;2022-10-14T08:31:44;30.77;;;23.67;;
1360;SDS011;674;45.552;-122.600;2022-10-14T08:34:12;28.60;;;22.90;;
1360;SDS011;674;45.552;-122.600;2022-10-14T08:36:41;33.93;;;25.20;;
1360;SDS011;674;45.552;-122.600;2022-10-14T08:39:09;31.83;;;23.90;;
1360;SDS011;674;45.552;-122.600;2022-10-14T08:44:43;31.20;;;25.00;;
1360;SDS011;674;45.552;-122.600;2022-10-14T08:47:20;33.10;;;26.30;;
1360;SDS011;674;45.552;-122.600;2022-10-14T08:50:05;34.63;;;24.97;;
1360;SDS011;674;45.552;-122.600;2022-10-14T08:52:53;29.20;;;24.60;;
1360;SDS011;674;45.552;-122.600;2022-10-14T08:58:32;29.20;;;23.77;;
1360;SDS011;674;45.552;-122.600;2022-10-14T09:01:43;32.03;;;25.50;;
1360;SDS011;674;45.552;-122.600;2022-10-14T09:04:06;32.23;;;24.77;;
1360;SDS011;674;45.552;-122.600;2022-10-14T09:06:40;29.17;;;23.70;;
1360;SDS011;674;45.552;-122.600;2022-10-14T09:09:17;30.60;;;26.00;;
1360;SDS011;674;45.552;-122.600;2022-10-14T09:11:51;33.60;;;24.80;;
1360;SDS011;674;45.552;-122.600;2022-10-14T09:14:32;34.07;;;26.33;;
1360;SDS011;674;45.552;-122.600;2022-10-14T09:17:19;29.40;;;25.63;;
1360;SDS011;674;45.552;-122.600;2022-10-14T09:19:56;31.60;;;25.93;;
1360;SDS011;674;45.552;-122.600;2022-10-14T09:22:45;32.67;;;28.70;;
1360;SDS011;674;45.552;-122.600;2022-10-14T09:26:02;34.67;;;27.60;;
1360;SDS011;674;45.552;-122.600;2022-10-14T09:28:37;38.63;;;27.10;;
1360;SDS011;674;45.552;-122.600;2022-10-14T09:31:11;31.60;;;26.23;;
1360;SDS011;674;45.552;-122.600;2022-10-14T09:33:40;33.30;;;27.67;;
1360;SDS011;674;45.552;-122.600;2022-10-14T09:36:28;35.47;;;26.07;;
1360;SDS011;674;45.552;-122.600;2022-10-14T09:38:57;30.07;;;26.43;;
1360;SDS011;674;45.552;-122.600;2022-10-14T09:41:31;34.00;;;26.53;;
1360;SDS011;674;45.552;-122.600;2022-10-14T09:46:55;31.23;;;26.87;;
1360;SDS011;674;45.552;-122.600;2022-10-14T09:49:39;35.80;;;27.83;;
1360;SDS011;674;45.552;-122.600;2022-10-14T09:52:21;33.50;;;29.83;;
1360;SDS011;674;45.552;-122.600;2022-10-14T09:54:55;34.67;;;27.80;;
1360;SDS011;674;45.552;-122.600;2022-10-14T09:57:26;36.47;;;30.67;;
1360;SDS011;674;45.552;-122.600;2022-10-14T09:59:58;34.83;;;28.23;;
1360;SDS011;674;45.552;-122.600;2022-10-14T10:02:40;36.40;;;29.40;;
1360;SDS011;674;45.552;-122.600;2022-10-14T10:05:22;35.37;;;28.37;;
1360;SDS011;674;45.552;-122.600;2022-10-14T10:08:38;35.53;;;29.13;;
1360;SDS011;674;45.552;-122.600;2022-10-14T10:10:56;33.80;;;27.37;;
1360;SDS011;674;45.552;-122.600;2022-10-14T10:13:43;34.73;;;28.80;;
1360;SDS011;674;45.552;-122.600;2022-10-14T10:16:21;34.37;;;27.83;;
1360;SDS011;674;45.552;-122.600;2022-10-14T10:18:52;35.00;;;29.00;;
1360;SDS011;674;45.552;-122.600;2022-10-14T10:21:28;32.60;;;27.70;;
1360;SDS011;674;45.552;-122.600;2022-10-14T10:24:00;34.40;;;28.60;;
1360;SDS011;674;45.552;-122.600;2022-10-14T10:26:31;36.30;;;27.43;;
1360;SDS011;674;45.552;-122.600;2022-10-14T10:29:02;34.13;;;26.53;;
1360;SDS011;674;45.552;-122.600;2022-10-14T10:31:39;37.43;;;27.53;;
1360;SDS011;674;45.552;-122.600;2022-10-14T10:40:04;35.33;;;27.90;;
1360;SDS011;674;45.552;-122.600;2022-10-14T11:00:22;36.00;;;30.80;;
1360;SDS011;674;45.552;-122.600;2022-10-14T11:08:34;38.47;;;29.73;;
1360;SDS011;674;45.552;-122.600;2022-10-14T11:11:38;37.33;;;29.27;;
1360;SDS011;674;45.552;-122.600;2022-10-14T11:17:05;36.80;;;28.77;;
1360;SDS011;674;45.552;-122.600;2022-10-14T11:19:43;35.93;;;29.60;;
1360;SDS011;674;45.552;-122.600;2022-10-14T11:22:44;34.27;;;28.27;;
1360;SDS011;674;45.552;-122.600;2022-10-14T11:39:25;40.07;;;31.90;;
1360;SDS011;674;45.552;-122.600;2022-10-14T11:45:05;39.67;;;31.20;;
1360;SDS011;674;45.552;-122.600;2022-10-14T11:47:46;36.23;;;30.60;;
1360;SDS011;674;45.552;-122.600;2022-10-14T11:50:18;39.63;;;31.20;;
1360;SDS011;674;45.552;-122.600;2022-10-14T11:53:08;41.20;;;32.47;;
1360;SDS011;674;45.552;-122.600;2022-10-14T11:55:40;34.83;;;30.37;;
1360;SDS011;674;45.552;-122.600;2022-10-14T11:58:19;43.47;;;35.53;;
1360;SDS011;674;45.552;-122.600;2022-10-14T12:00:52;43.00;;;34.07;;
1360;SDS011;674;45.552;-122.600;2022-10-14T12:03:32;48.80;;;36.73;;
1360;SDS011;674;45.552;-122.600;2022-10-14T12:06:11;42.40;;;35.23;;
1360;SDS011;674;45.552;-122.600;2022-10-14T12:11:36;44.53;;;35.37;;
1360;SDS011;674;45.552;-122.600;2022-10-14T12:14:19;43.03;;;35.80;;
1360;SDS011;674;45.552;-122.600;2022-10-14T12:16:59;49.07;;;38.60;;
1360;SDS011;674;45.552;-122.600;2022-10-14T12:19:34;47.93;;;36.97;;
1360;SDS011;674;45.552;-122.600;2022-10-14T12:25:03;47.17;;;37.37;;
1360;SDS011;674;45.552;-122.600;2022-10-14T12:27:38;49.23;;;37.13;;
1360;SDS011;674;45.552;-122.600;2022-10-14T12:30:49;47.07;;;38.60;;
1360;SDS011;674;45.552;-122.600;2022-10-14T12:33:01;44.87;;;38.30;;
1360;SDS011;674;45.552;-122.600;2022-10-14T12:35:47;50.63;;;39.67;;
1360;SDS011;674;45.552;-122.600;2022-10-14T12:38:18;49.83;;;40.40;;
1360;SDS011;674;45.552;-122.600;2022-10-14T12:40:48;47.57;;;40.40;;
1360;SDS011;674;45.552;-122.600;2022-10-14T12:43:25;47.60;;;37.30;;
1360;SDS011;674;45.552;-122.600;2022-10-14T12:46:00;43.77;;;37.67;;
1360;SDS011;674;45.552;-122.600;2022-10-14T12:48:30;47.70;;;38.87;;
1360;SDS011;674;45.552;-122.600;2022-10-14T12:51:08;47.53;;;38.27;;
1360;SDS011;674;45.552;-122.600;2022-10-14T12:53:48;48.77;;;40.07;;
1360;SDS011;674;45.552;-122.600;2022-10-14T12:56:52;46.00;;;37.70;;
1360;SDS011;674;45.552;-122.600;2022-10-14T12:59:45;47.97;;;37.57;;
1360;SDS011;674;45.552;-122.600;2022-10-14T13:02:30;46.70;;;36.40;;
1360;SDS011;674;45.552;-122.600;2022-10-14T13:05:06;43.67;;;36.40;;
1360;SDS011;674;45.552;-122.600;2022-10-14T13:07:38;48.83;;;37.63;;
1360;SDS011;674;45.552;-122.600;2022-10-14T13:14:17;42.67;;;37.63;;
1360;SDS011;674;45.552;-122.600;2022-10-14T13:18:56;44.00;;;37.60;;
1360;SDS011;674;45.552;-122.600;2022-10-14T13:24:14;47.70;;;38.80;;
1360;SDS011;674;45.552;-122.600;2022-10-14T13:29:35;53.53;;;41.10;;
1360;SDS011;674;45.552;-122.600;2022-10-14T13:38:00;51.70;;;40.20;;
1360;SDS011;674;45.552;-122.600;2022-10-14T13:40:35;51.90;;;42.93;;
1360;SDS011;674;45.552;-122.600;2022-10-14T13:45:41;56.37;;;43.50;;
1360;SDS011;674;45.552;-122.600;2022-10-14T13:48:16;56.77;;;45.93;;
1360;SDS011;674;45.552;-122.600;2022-10-14T13:50:49;57.80;;;46.13;;
1360;SDS011;674;45.552;-122.600;2022-10-14T13:53:37;54.50;;;44.70;;
1360;SDS011;674;45.552;-122.600;2022-10-14T13:56:28;57.37;;;46.57;;
1360;SDS011;674;45.552;-122.600;2022-10-14T13:58:57;57.50;;;47.13;;
1360;SDS011;674;45.552;-122.600;2022-10-14T14:01:36;58.80;;;49.13;;
1360;SDS011;674;45.552;-122.600;2022-10-14T14:04:05;60.50;;;46.23;;
1360;SDS011;674;45.552;-122.600;2022-10-14T14:06:45;57.80;;;48.03;;
1360;SDS011;674;45.552;-122.600;2022-10-14T14:09:34;62.57;;;45.97;;
1360;SDS011;674;45.552;-122.600;2022-10-14T14:12:04;65.70;;;49.77;;
1360;SDS011;674;45.552;-122.600;2022-10-14T14:14:34;64.60;;;51.17;;
1360;SDS011;674;45.552;-122.600;2022-10-14T14:17:17;63.13;;;48.97;;
1360;SDS011;674;45.552;-122.600;2022-10-14T14:19:48;61.00;;;49.40;;
1360;SDS011;674;45.552;-122.600;2022-10-14T14:22:18;63.87;;;51.77;;
1360;SDS011;674;45.552;-122.600;2022-10-14T14:28:10;68.60;;;52.50;;
1360;SDS011;674;45.552;-122.600;2022-10-14T14:30:45;74.50;;;54.00;;
1360;SDS011;674;45.552;-122.600;2022-10-14T14:33:26;72.50;;;53.40;;
1360;SDS011;674;45.552;-122.600;2022-10-14T14:36:01;61.07;;;49.63;;
1360;SDS011;674;45.552;-122.600;2022-10-14T14:38:32;59.97;;;48.20;;
1360;SDS011;674;45.552;-122.600;2022-10-14T14:41:19;69.60;;;54.17;;
1360;SDS011;674;45.552;-122.600;2022-10-14T14:43:54;72.97;;;50.33;;
1360;SDS011;674;45.552;-122.600;2022-10-14T14:46:44;73.90;;;54.33;;
1360;SDS011;674;45.552;-122.600;2022-10-14T14:49:15;82.27;;;53.40;;
1360;SDS011;674;45.552;-122.600;2022-10-14T14:52:04;66.67;;;52.90;;
1360;SDS011;674;45.552;-122.600;2022-10-14T14:54:33;68.97;;;53.30;;
1360;SDS011;674;45.552;-122.600;2022-10-14T14:57:18;66.80;;;51.37;;
1360;SDS011;674;45.552;-122.600;2022-10-14T15:02:22;69.10;;;52.17;;
1360;SDS011;674;45.552;-122.600;2022-10-14T15:05:02;65.00;;;52.10;;
1360;SDS011;674;45.552;-122.600;2022-10-14T15:07:32;61.80;;;48.10;;
1360;SDS011;674;45.552;-122.600;2022-10-14T15:10:06;61.83;;;49.40;;
1360;SDS011;674;45.552;-122.600;2022-10-14T15:12:36;64.40;;;53.57;;
1360;SDS011;674;45.552;-122.600;2022-10-14T15:15:27;67.80;;;52.00;;
1360;SDS011;674;45.552;-122.600;2022-10-14T15:23:42;65.50;;;51.57;;
1360;SDS011;674;45.552;-122.600;2022-10-14T15:29:04;74.60;;;55.93;;
1360;SDS011;674;45.552;-122.600;2022-10-14T15:34:55;59.80;;;49.93;;
1360;SDS011;674;45.552;-122.600;2022-10-14T15:37:26;64.07;;;51.07;;
1360;SDS011;674;45.552;-122.600;2022-10-14T15:42:56;64.37;;;52.40;;
1360;SDS011;674;45.552;-122.600;2022-10-14T15:45:25;66.20;;;53.17;;
1360;SDS011;674;45.552;-122.600;2022-10-14T15:47:56;65.97;;;52.50;;
1360;SDS011;674;45.552;-122.600;2022-10-14T15:50:29;68.10;;;54.10;;
1360;SDS011;674;45.552;-122.600;2022-10-14T15:52:58;67.60;;;54.23;;
1360;SDS011;674;45.552;-122.600;2022-10-14T15:55:27;63.03;;;51.10;;
1360;SDS011;674;45.552;-122.600;2022-10-14T15:58:00;70.47;;;54.20;;
1360;SDS011;674;45.552;-122.600;2022-10-14T16:00:29;71.47;;;56.27;;
1360;SDS011;674;45.552;-122.600;2022-10-14T16:02:58;74.63;;;51.83;;
1360;SDS011;674;45.552;-122.600;2022-10-14T16:05:30;63.47;;;50.30;;
1360;SDS011;674;45.552;-122.600;2022-10-14T16:07:58;62.90;;;51.20;;
1360;SDS011;674;45.552;-122.600;2022-10-14T16:10:26;66.07;;;51.13;;
1360;SDS011;674;45.552;-122.600;2022-10-14T16:12:59;66.27;;;54.13;;
1360;SDS011;674;45.552;-122.600;2022-10-14T16:18:31;63.23;;;50.83;;
1360;SDS011;674;45.552;-122.600;2022-10-14T16:20:59;64.90;;;51.47;;
1360;SDS011;674;45.552;-122.600;2022-10-14T16:23:27;63.57;;;49.73;;
1360;SDS011;674;45.552;-122.600;2022-10-14T16:25:58;61.97;;;50.13;;
1360;SDS011;674;45.552;-122.600;2022-10-14T16:28:27;58.00;;;45.70;;
1360;SDS011;674;45.552;-122.600;2022-10-14T16:30:55;55.63;;;46.50;;
1360;SDS011;674;45.552;-122.600;2022-10-14T16:33:26;58.83;;;48.27;;
1360;SDS011;674;45.552;-122.600;2022-10-14T16:35:55;62.40;;;45.87;;
1360;SDS011;674;45.552;-122.600;2022-10-14T16:38:23;52.20;;;42.93;;
1360;SDS011;674;45.552;-122.600;2022-10-14T16:40:53;65.03;;;44.50;;
1360;SDS011;674;45.552;-122.600;2022-10-14T16:43:23;51.23;;;41.40;;
1360;SDS011;674;45.552;-122.600;2022-10-14T16:45:52;53.00;;;42.33;;
1360;SDS011;674;45.552;-122.600;2022-10-14T16:48:23;52.77;;;41.97;;
1360;SDS011;674;45.552;-122.600;2022-10-14T16:50:53;47.93;;;38.50;;
1360;SDS011;674;45.552;-122.600;2022-10-14T16:53:21;48.30;;;40.63;;
1360;SDS011;674;45.552;-122.600;2022-10-14T16:56:16;50.00;;;42.53;;
1360;SDS011;674;45.552;-122.600;2022-10-14T16:59:05;48.23;;;40.70;;
1360;SDS011;674;45.552;-122.600;2022-10-14T17:01:36;54.77;;;42.57;;
1360;SDS011;674;45.552;-122.600;2022-10-14T17:04:06;48.50;;;39.60;;
1360;SDS011;674;45.552;-122.600;2022-10-14T17:06:35;48.33;;;39.37;;
1360;SDS011;674;45.552;-122.600;2022-10-14T17:09:04;47.73;;;39.17;;